createdAt,value
2023-01-20T00:01:00.144Z,31.6
2023-01-20T00:04:02.148Z,29.4
2023-01-20T00:07:04.082Z,33.3
2023-01-20T00:10:06.029Z,33.4
2023-01-20T00:13:07.993Z,35.9
2023-01-20T00:16:10.032Z,49.2
2023-01-20T00:19:11.963Z,37.7
2023-01-20T00:22:13.929Z,38.1
2023-01-20T00:25:16.172Z,50.2
2023-01-20T00:28:17.840Z,38.2
2023-01-20T00:31:19.820Z,50
2023-01-20T00:34:21.724Z,42.5
2023-01-20T00:37:23.748Z,38.9
2023-01-20T00:40:25.655Z,42.5
2023-01-20T00:43:27.636Z,40
2023-01-20T00:46:29.631Z,41.5
2023-01-20T00:49:31.541Z,42.2
2023-01-20T00:52:33.535Z,42.9
2023-01-20T00:55:35.474Z,37.7
2023-01-20T00:58:37.519Z,50.3
2023-01-20T01:01:39.502Z,42
2023-01-20T01:04:41.352Z,49.3
2023-01-20T01:07:43.513Z,41.3
2023-01-20T01:10:45.322Z,43.2
2023-01-20T01:13:47.252Z,43.6
2023-01-20T01:16:49.219Z,47.7
2023-01-20T01:19:51.166Z,46
2023-01-20T01:22:53.151Z,35.7
2023-01-20T01:25:55.102Z,37
2023-01-20T01:28:57.094Z,47.9
2023-01-20T01:31:59.047Z,41.2
2023-01-20T01:35:00.997Z,51.1
2023-01-20T01:38:03.006Z,42.7
2023-01-20T01:41:05.013Z,42.9
2023-01-20T01:44:06.907Z,45.6
2023-01-20T01:47:08.875Z,46.6
2023-01-20T01:50:10.837Z,42.4
2023-01-20T01:53:12.881Z,45
2023-01-20T01:56:14.808Z,48.4
2023-01-20T01:59:16.773Z,44.5
2023-01-20T02:02:20.404Z,45.5
2023-01-20T02:05:20.654Z,53.6
2023-01-20T02:08:22.628Z,41.1
2023-01-20T02:11:24.612Z,42.7
2023-01-20T02:14:26.559Z,42.1
2023-01-20T02:17:28.522Z,48.8
2023-01-20T02:20:30.476Z,43.8
2023-01-20T02:23:32.433Z,45.8
2023-01-20T02:26:34.401Z,57.3
2023-01-20T02:29:36.368Z,52.6
2023-01-20T02:32:38.318Z,46.8
2023-01-20T02:35:40.279Z,44.8
2023-01-20T02:38:42.244Z,45.2
2023-01-20T02:41:44.208Z,50
2023-01-20T02:44:46.157Z,42.2
2023-01-20T02:47:51.020Z,43.3
2023-01-20T02:50:50.079Z,40.7
2023-01-20T02:53:52.060Z,37.9
2023-01-20T02:56:54.027Z,42.3
2023-01-20T02:59:55.969Z,47.9
2023-01-20T03:02:57.947Z,44.3
2023-01-20T03:05:59.958Z,35.6
2023-01-20T03:09:01.905Z,45.1
2023-01-20T03:12:03.832Z,34.4
2023-01-20T03:15:05.815Z,46.1
2023-01-20T03:18:07.776Z,39.9
2023-01-20T03:21:09.743Z,53
2023-01-20T03:24:11.717Z,46.3
2023-01-20T03:27:13.818Z,41.2
2023-01-20T03:30:15.648Z,38.7
2023-01-20T03:33:17.613Z,45.7
2023-01-20T03:36:19.582Z,47.9
2023-01-20T03:39:21.582Z,39.6
2023-01-20T03:42:23.549Z,34.9
2023-01-20T03:45:25.491Z,36.4
2023-01-20T03:48:27.449Z,37.9
2023-01-20T03:51:29.404Z,42.8
2023-01-20T03:54:31.382Z,38.7
2023-01-20T03:57:33.328Z,50.1
2023-01-20T04:00:35.305Z,54.8
2023-01-20T04:03:37.380Z,44.4
2023-01-20T04:06:39.244Z,44.9
2023-01-20T04:09:41.202Z,42
2023-01-20T04:12:43.237Z,40.7
2023-01-20T04:15:45.253Z,49.7
2023-01-20T04:18:47.152Z,47.3
2023-01-20T04:21:49.082Z,48.7
2023-01-20T04:24:51.065Z,46.9
2023-01-20T04:27:53.014Z,42.9
2023-01-20T04:30:55.134Z,43
2023-01-20T04:33:56.909Z,44.3
2023-01-20T04:36:58.880Z,46.4
2023-01-20T04:40:00.851Z,45.8
2023-01-20T04:43:02.857Z,37.1
2023-01-20T04:46:04.878Z,40.8
2023-01-20T04:49:06.746Z,43.7
2023-01-20T04:52:08.699Z,41.4
2023-01-20T04:55:10.674Z,42.6
2023-01-20T04:58:12.639Z,42.3
2023-01-20T05:01:14.666Z,39
2023-01-20T05:04:16.604Z,44.2
2023-01-20T05:07:18.531Z,37.7
2023-01-20T05:10:20.505Z,58.5
2023-01-20T05:13:22.434Z,54.4
2023-01-20T05:16:24.432Z,57.6
2023-01-20T05:19:26.373Z,50.8
2023-01-20T05:22:28.324Z,55.5
2023-01-20T05:25:30.288Z,43
2023-01-20T05:28:32.242Z,41.7
2023-01-20T05:31:34.295Z,47.6
2023-01-20T05:34:36.183Z,51
2023-01-20T05:37:38.126Z,45.7
2023-01-20T05:40:40.136Z,44.3
2023-01-20T05:43:42.087Z,51.3
2023-01-20T05:46:44.255Z,56
2023-01-20T05:49:46.011Z,49.8
2023-01-20T05:52:49.358Z,48.6
2023-01-20T05:55:49.922Z,42
2023-01-20T05:58:51.893Z,49.1
2023-01-20T06:01:53.963Z,48.4
2023-01-20T06:04:55.807Z,45.8
2023-01-20T06:07:57.762Z,40.4
2023-01-20T06:10:59.734Z,45.6
2023-01-20T06:14:01.714Z,47.6
2023-01-20T06:17:03.644Z,41.4
2023-01-20T06:20:05.596Z,52
2023-01-20T06:23:07.571Z,48
2023-01-20T06:26:09.529Z,48.4
2023-01-20T06:29:11.480Z,45.3
2023-01-20T06:32:13.436Z,47
2023-01-20T06:35:15.574Z,54.5
2023-01-20T06:38:17.400Z,54.1
2023-01-20T06:41:19.365Z,52.6
2023-01-20T06:44:21.334Z,58.6
2023-01-20T06:47:23.252Z,55.5
2023-01-20T06:50:25.267Z,57.7
2023-01-20T06:53:27.207Z,47.1
2023-01-20T06:56:31.870Z,51.1
2023-01-20T06:59:31.594Z,53.1
2023-01-20T07:02:33.581Z,47.6
2023-01-20T07:05:35.519Z,47.8
2023-01-20T07:08:37.476Z,43.9
2023-01-20T07:11:39.438Z,48.1
2023-01-20T07:14:41.423Z,46.6
2023-01-20T07:17:43.383Z,47.6
2023-01-20T07:20:45.368Z,50.5
2023-01-20T07:23:47.345Z,53.8
2023-01-20T07:26:49.303Z,45.7
2023-01-20T07:29:51.241Z,63
2023-01-20T07:32:53.198Z,56
2023-01-20T07:35:55.159Z,64.6
2023-01-20T07:38:57.121Z,52.4
2023-01-20T07:41:59.083Z,56.6
2023-01-20T07:45:01.038Z,58.1
2023-01-20T07:48:03.076Z,55.8
2023-01-20T07:51:05.147Z,69.5
2023-01-20T07:54:07.166Z,76.9
2023-01-20T07:57:09.114Z,65.9
2023-01-20T08:00:11.157Z,57.6
2023-01-20T08:03:13.052Z,53.1
2023-01-20T08:06:14.991Z,59.9
2023-01-20T08:09:16.982Z,65.7
2023-01-20T08:12:18.929Z,49
2023-01-20T08:15:20.905Z,60.1
2023-01-20T08:18:22.840Z,56
2023-01-20T08:21:24.801Z,63.3
2023-01-20T08:24:26.765Z,59.1
2023-01-20T08:27:28.752Z,69.1
2023-01-20T08:30:30.904Z,59.1
2023-01-20T08:33:32.690Z,61.1
2023-01-20T08:36:34.680Z,60.4
2023-01-20T08:39:36.619Z,56.6
2023-01-20T08:42:38.576Z,58.6
2023-01-20T08:45:40.677Z,62.8
2023-01-20T08:48:42.513Z,62.2
2023-01-20T08:51:44.761Z,59.3
2023-01-20T08:54:46.454Z,58.4
2023-01-20T08:57:48.418Z,54.3
2023-01-20T09:00:50.503Z,57.2
2023-01-20T09:04:04.656Z,65.4
2023-01-20T09:06:54.294Z,60.7
2023-01-20T09:09:56.263Z,59.7
2023-01-20T09:12:58.231Z,58.7
2023-01-20T09:16:00.285Z,56.9
2023-01-20T09:19:02.141Z,55.7
2023-01-20T09:22:04.088Z,55.8
2023-01-20T09:25:06.059Z,55.1
2023-01-20T09:28:08.012Z,54.6
2023-01-20T09:31:10.087Z,56.3
2023-01-20T09:34:13.881Z,48.6
2023-01-20T09:37:13.900Z,51.5
2023-01-20T09:40:16.182Z,58.1
2023-01-20T09:43:17.864Z,45.7
2023-01-20T09:46:19.856Z,47.9
2023-01-20T09:49:21.788Z,53.9
2023-01-20T09:52:23.795Z,54.5
2023-01-20T09:55:25.717Z,46.9
2023-01-20T09:58:27.697Z,47.7
2023-01-20T10:01:29.671Z,51.6
2023-01-20T10:04:31.603Z,40.6
2023-01-20T10:07:33.575Z,41.8
2023-01-20T10:10:35.538Z,44.5
2023-01-20T10:13:37.491Z,46.3
2023-01-20T10:16:39.452Z,39.5
2023-01-20T10:19:41.403Z,45.4
2023-01-20T10:22:43.361Z,43.6
2023-01-20T10:25:45.344Z,35.9
2023-01-20T10:28:47.276Z,36.3
2023-01-20T10:31:49.266Z,39.8
2023-01-20T10:34:51.224Z,41.5
2023-01-20T10:37:53.161Z,44.1
2023-01-20T10:40:55.289Z,45.7
2023-01-20T10:43:57.068Z,40
2023-01-20T10:46:59.070Z,43.3
2023-01-20T10:50:01.002Z,38.3
2023-01-20T10:53:02.950Z,33.1
2023-01-20T10:56:04.917Z,35.9
2023-01-20T10:59:06.868Z,32.7
2023-01-20T11:02:12.086Z,34.3
2023-01-20T11:05:10.798Z,39.3
2023-01-20T11:08:12.791Z,30.3
2023-01-20T11:11:14.721Z,33.5
2023-01-20T11:14:16.696Z,38.1
2023-01-20T11:17:18.671Z,32.5
2023-01-20T11:20:20.663Z,34.7
2023-01-20T11:23:22.586Z,30.3
2023-01-20T11:26:26.983Z,38.3
2023-01-20T11:29:26.496Z,31.8
2023-01-20T11:32:28.457Z,27.9
2023-01-20T11:35:30.419Z,26.8
2023-01-20T11:38:32.373Z,35.7
2023-01-20T11:41:34.354Z,31.4
2023-01-20T11:44:36.300Z,24.4
2023-01-20T11:47:38.268Z,26.1
2023-01-20T11:50:40.256Z,20.6
2023-01-20T11:53:42.226Z,25.3
2023-01-20T11:56:44.149Z,26.4
2023-01-20T11:59:46.153Z,20.4
2023-01-20T12:02:48.138Z,19.2
2023-01-20T12:05:50.076Z,20.1
2023-01-20T12:08:52.015Z,20.6
2023-01-20T12:11:54.048Z,20.4
2023-01-20T12:14:55.988Z,18.5
2023-01-20T12:17:57.975Z,18.9
2023-01-20T12:20:59.939Z,16.2
2023-01-20T12:24:03.234Z,16.4
2023-01-20T12:27:03.987Z,22.1
2023-01-20T12:30:05.915Z,17.5
2023-01-20T12:33:07.861Z,22.1
2023-01-20T12:36:09.885Z,27.8
2023-01-20T12:39:11.795Z,20.7
2023-01-20T12:42:13.804Z,25.1
2023-01-20T12:45:15.784Z,19.5
2023-01-20T12:48:17.741Z,20
2023-01-20T12:51:19.703Z,19.4
2023-01-20T12:54:21.754Z,19.7
2023-01-20T12:57:23.812Z,16.9
2023-01-20T13:00:25.778Z,16
2023-01-20T13:03:27.719Z,18.7
2023-01-20T13:06:29.706Z,17.3
2023-01-20T13:09:31.649Z,18.8
2023-01-20T13:12:33.586Z,22.3
2023-01-20T13:15:35.548Z,15.2
2023-01-20T13:18:37.507Z,20.9
2023-01-20T13:21:39.469Z,22.3
2023-01-20T13:24:41.530Z,16.4
2023-01-20T13:27:43.503Z,15.4
2023-01-20T13:30:45.588Z,17.4
2023-01-20T13:33:47.463Z,13.3
2023-01-20T13:36:49.392Z,19.2
2023-01-20T13:39:51.377Z,19.5
2023-01-20T13:42:53.403Z,14.5
2023-01-20T13:45:55.321Z,18.4
2023-01-20T13:48:57.285Z,18.9
2023-01-20T13:51:59.251Z,17.7
2023-01-20T13:55:01.231Z,17.3
2023-01-20T13:58:03.283Z,16.8
2023-01-20T14:01:05.257Z,18.5
2023-01-20T14:04:07.169Z,18.3
2023-01-20T14:07:09.111Z,20.1
2023-01-20T14:10:11.094Z,17.7
2023-01-20T14:13:13.067Z,20.1
2023-01-20T14:16:15.283Z,20.6
2023-01-20T14:19:17.043Z,17.7
2023-01-20T14:22:18.979Z,18.6
2023-01-20T14:25:20.913Z,21.6
2023-01-20T14:28:23.048Z,17.3
2023-01-20T14:31:25.109Z,15.4
2023-01-20T14:34:27.005Z,22.5
2023-01-20T14:37:28.952Z,21.2
2023-01-20T14:40:31.024Z,19.4
2023-01-20T14:43:32.875Z,18.3
2023-01-20T14:46:35.082Z,21.5
2023-01-20T14:49:36.826Z,15.5
2023-01-20T14:52:38.775Z,18.2
2023-01-20T14:55:40.828Z,18.6
2023-01-20T14:58:42.693Z,16.6
2023-01-20T15:01:44.839Z,23.9
2023-01-20T15:04:46.697Z,17.3
2023-01-20T15:07:48.663Z,21.7
2023-01-20T15:10:50.608Z,22.1
2023-01-20T15:13:52.558Z,21.5
2023-01-20T15:16:54.544Z,22.2
2023-01-20T15:19:56.572Z,21.9
2023-01-20T15:22:58.468Z,20.6
2023-01-20T15:26:00.546Z,29.2
2023-01-20T15:29:02.415Z,21.8
2023-01-20T15:32:04.371Z,26.5
2023-01-20T15:35:06.330Z,23.6
2023-01-20T15:38:08.299Z,24
2023-01-20T15:41:12.574Z,24.3
2023-01-20T15:44:12.284Z,28
2023-01-20T15:47:14.454Z,25.2
2023-01-20T15:50:16.737Z,27
2023-01-20T15:53:18.505Z,25.2
2023-01-20T15:56:20.495Z,26.9
2023-01-20T15:59:22.443Z,24.5
2023-01-20T16:02:24.529Z,32.1
2023-01-20T16:05:26.371Z,25.5
2023-01-20T16:08:28.307Z,25.5
2023-01-20T16:11:30.259Z,22.1
2023-01-20T16:14:32.232Z,24.8
2023-01-20T16:17:34.357Z,19.4
2023-01-20T16:20:36.341Z,23.3
2023-01-20T16:23:38.308Z,17.6
2023-01-20T16:26:40.272Z,20.3
2023-01-20T16:29:42.261Z,20.2
2023-01-20T16:32:44.181Z,25.9
2023-01-20T16:35:46.144Z,23.6
2023-01-20T16:38:48.097Z,25.7
2023-01-20T16:41:50.061Z,30
2023-01-20T16:44:52.311Z,28
2023-01-20T16:47:54.110Z,29.5
2023-01-20T16:50:56.195Z,31.9
2023-01-20T16:53:58.096Z,28.2
2023-01-20T16:57:00.030Z,30
2023-01-20T17:00:02.011Z,28.7
2023-01-20T17:03:04.085Z,34.7
2023-01-20T17:06:06.192Z,30.4
2023-01-20T17:09:08.122Z,28.5
2023-01-20T17:12:10.276Z,27.8
2023-01-20T17:15:12.435Z,24.9
2023-01-20T17:18:14.401Z,24.9
2023-01-20T17:21:16.380Z,26
2023-01-20T17:24:18.372Z,29.9
2023-01-20T17:27:20.477Z,27.7
2023-01-20T17:30:23.968Z,30.5
2023-01-20T17:33:27.189Z,31.4
2023-01-20T17:36:29.294Z,27.5
2023-01-20T17:39:31.268Z,32.3
2023-01-20T17:42:33.367Z,34.6
2023-01-20T17:45:35.499Z,28.8
2023-01-20T17:48:37.662Z,33.2
2023-01-20T17:51:39.630Z,34.4
2023-01-20T17:54:41.649Z,36.2
2023-01-20T17:57:43.576Z,34.3
2023-01-20T18:00:45.626Z,38.1
2023-01-20T18:03:47.572Z,32.2
2023-01-20T18:06:49.590Z,32.1
2023-01-20T18:09:51.524Z,29.8
2023-01-20T18:12:53.474Z,34.6
2023-01-20T18:15:55.435Z,30.3
2023-01-20T18:18:57.429Z,27.3
2023-01-20T18:21:59.390Z,35.5
2023-01-20T18:25:01.345Z,35.1
2023-01-20T18:28:03.307Z,27
2023-01-20T18:31:05.367Z,26.6
2023-01-20T18:34:07.248Z,28.4
2023-01-20T18:37:09.197Z,28.3
2023-01-20T18:40:11.166Z,29.2
2023-01-20T18:43:13.119Z,36.4
2023-01-20T18:46:15.190Z,28.6
2023-01-20T18:49:17.084Z,36.7
2023-01-20T18:52:19.030Z,35
2023-01-20T18:55:21.030Z,40.6
2023-01-20T18:58:22.996Z,34.8
2023-01-20T19:01:25.017Z,34.5
2023-01-20T19:04:26.944Z,31.5
2023-01-20T19:07:28.882Z,31.6
2023-01-20T19:10:30.875Z,28
2023-01-20T19:13:32.806Z,35.8
2023-01-20T19:16:34.791Z,27.9
2023-01-20T19:19:36.759Z,34.1
2023-01-20T19:22:38.680Z,27.4
2023-01-20T19:25:40.668Z,28.7
2023-01-20T19:28:42.614Z,27.9
2023-01-20T19:31:44.644Z,30.8
2023-01-20T19:34:46.529Z,29.7
2023-01-20T19:37:48.510Z,36.5
2023-01-20T19:40:50.451Z,33.7
2023-01-20T19:43:52.400Z,30.8
2023-01-20T19:46:54.377Z,25.6
2023-01-20T19:49:56.332Z,30.6
2023-01-20T19:52:58.404Z,29
2023-01-20T19:56:00.310Z,30
2023-01-20T19:59:02.280Z,29.7
2023-01-20T20:02:04.225Z,28.8
2023-01-20T20:05:06.152Z,23.5
2023-01-20T20:08:08.136Z,22.1
2023-01-20T20:11:10.125Z,25.2
2023-01-20T20:14:12.102Z,27.6
2023-01-20T20:17:14.119Z,27.8
2023-01-20T20:20:16.262Z,26.3
2023-01-20T20:23:18.016Z,22.7
2023-01-20T20:26:19.946Z,18.9
2023-01-20T20:29:21.932Z,16.1
2023-01-20T20:32:25.487Z,13.5
2023-01-20T20:35:25.843Z,16.3
2023-01-20T20:38:27.811Z,14.5
2023-01-20T20:41:29.834Z,14
2023-01-20T20:44:31.767Z,15.5
2023-01-20T20:47:33.732Z,15.1
2023-01-20T20:50:35.690Z,19.9
2023-01-20T20:53:37.681Z,20.1
2023-01-20T20:56:39.650Z,16.7
2023-01-20T20:59:57.729Z,17.4
2023-01-20T21:02:43.615Z,17.3
2023-01-20T21:05:45.762Z,16.9
2023-01-20T21:08:47.512Z,19.6
2023-01-20T21:11:49.458Z,19.3
2023-01-20T21:14:51.456Z,22
2023-01-20T21:17:53.384Z,25.6
2023-01-20T21:20:55.356Z,24.6
2023-01-20T21:23:57.436Z,24.3
2023-01-20T21:26:59.355Z,23.9
2023-01-20T21:30:01.353Z,31.4
2023-01-20T21:33:03.294Z,37.3
2023-01-20T21:36:05.283Z,41.7
2023-01-20T21:39:07.218Z,34.4
2023-01-20T21:42:09.197Z,42.9
2023-01-20T21:45:11.672Z,39.8
2023-01-20T21:48:13.951Z,45.1
2023-01-20T21:51:15.943Z,34.2
2023-01-20T21:54:18.567Z,45.7
2023-01-20T21:57:21.016Z,33.8
2023-01-20T22:00:21.718Z,41.8
2023-01-20T22:03:23.658Z,40.5
2023-01-20T22:06:25.643Z,41.8
2023-01-20T22:09:27.596Z,43.1
2023-01-20T22:12:29.602Z,42.2
2023-01-20T22:15:31.548Z,41.9
2023-01-20T22:18:33.575Z,42.5
2023-01-20T22:21:35.491Z,38
2023-01-20T22:24:37.448Z,32.2
2023-01-20T22:27:39.423Z,35.3
2023-01-20T22:30:41.362Z,34.9
2023-01-20T22:33:43.337Z,36.3
2023-01-20T22:36:45.292Z,34.6
2023-01-20T22:39:47.247Z,32.4
2023-01-20T22:42:49.211Z,34.1
2023-01-20T22:45:51.302Z,36.8
2023-01-20T22:48:53.212Z,34.4
2023-01-20T22:51:55.151Z,36.1
2023-01-20T22:54:57.161Z,33.2
2023-01-20T22:57:59.298Z,33.8
2023-01-20T23:01:01.175Z,29.5
2023-01-20T23:04:03.070Z,33.1
2023-01-20T23:07:05.033Z,37.1
2023-01-20T23:10:07.026Z,33.1
2023-01-20T23:13:08.973Z,32.2
2023-01-20T23:16:10.954Z,34.7
2023-01-20T23:19:12.884Z,36.8
2023-01-20T23:22:14.839Z,32.3
2023-01-20T23:25:16.846Z,33.1
2023-01-20T23:28:18.789Z,34.5
2023-01-20T23:31:20.815Z,33.4
2023-01-20T23:34:22.679Z,31.7
2023-01-20T23:37:24.664Z,32.1
2023-01-20T23:40:26.610Z,37.8
2023-01-20T23:43:28.560Z,34.7
2023-01-20T23:46:30.542Z,32.9
2023-01-20T23:49:32.527Z,35.2
2023-01-20T23:52:34.464Z,36.7
2023-01-20T23:55:36.436Z,36
2023-01-20T23:58:38.394Z,36.5
